createdAt,value
2017-08-28T00:00:15.541Z,89.80
2017-08-28T00:02:41.594Z,89.90
2017-08-28T00:05:07.621Z,89.60
2017-08-28T00:07:33.649Z,90.10
2017-08-28T00:09:59.680Z,90.00
2017-08-28T00:12:25.692Z,90.10
2017-08-28T00:14:51.711Z,90.50
2017-08-28T00:17:17.742Z,90.30
2017-08-28T00:19:43.773Z,90.40
2017-08-28T00:22:09.813Z,90.50
2017-08-28T00:24:35.848Z,90.90
2017-08-28T00:27:01.882Z,90.50
2017-08-28T00:29:27.906Z,90.60
2017-08-28T00:31:53.928Z,90.50
2017-08-28T00:34:19.953Z,90.50
2017-08-28T00:36:45.989Z,90.70
2017-08-28T00:39:12.765Z,90.80
2017-08-28T00:41:38.814Z,90.80
2017-08-28T00:44:04.831Z,90.90
2017-08-28T00:46:30.865Z,90.90
2017-08-28T00:48:56.889Z,90.90
2017-08-28T00:51:22.943Z,90.80
2017-08-28T00:53:48.973Z,90.90
2017-08-28T00:56:15.029Z,91.00
2017-08-28T00:58:41.073Z,90.80
2017-08-28T01:01:07.102Z,90.60
2017-08-28T01:03:33.306Z,90.90
2017-08-28T01:05:59.351Z,91.10
2017-08-28T01:08:25.397Z,91.10
2017-08-28T01:10:51.518Z,91.20
2017-08-28T01:13:17.562Z,91.20
2017-08-28T01:15:43.585Z,91.30
2017-08-28T01:18:09.590Z,91.10
2017-08-28T01:20:35.619Z,91.20
2017-08-28T01:23:01.659Z,91.20
2017-08-28T01:25:27.682Z,91.20
2017-08-28T01:27:53.706Z,91.30
2017-08-28T01:30:19.729Z,91.20
2017-08-28T01:32:45.753Z,91.10
2017-08-28T01:35:11.789Z,91.20
2017-08-28T01:37:37.825Z,91.40
2017-08-28T01:40:03.866Z,91.20
2017-08-28T01:42:29.901Z,91.40
2017-08-28T01:44:55.925Z,91.50
2017-08-28T01:47:21.949Z,91.50
2017-08-28T01:49:47.969Z,91.60
2017-08-28T01:52:13.989Z,91.80
2017-08-28T01:54:40.001Z,91.70
2017-08-28T01:57:06.005Z,91.90
2017-08-28T01:59:32.037Z,92.00
2017-08-28T02:01:58.048Z,91.90
2017-08-28T02:04:24.104Z,92.00
2017-08-28T02:06:50.112Z,92.20
2017-08-28T02:09:16.181Z,92.60
2017-08-28T02:11:42.233Z,92.50
2017-08-28T02:14:08.286Z,92.60
2017-08-28T02:16:34.304Z,92.50
2017-08-28T02:19:00.329Z,92.30
2017-08-28T02:21:26.357Z,92.30
2017-08-28T02:23:52.396Z,92.20
2017-08-28T02:26:18.436Z,92.00
2017-08-28T02:28:44.449Z,92.10
2017-08-28T02:31:10.469Z,92.00
2017-08-28T02:33:36.502Z,92.20
2017-08-28T02:36:02.537Z,92.30
2017-08-28T02:38:28.560Z,92.30
2017-08-28T02:40:54.588Z,92.20
2017-08-28T02:43:20.651Z,92.10
2017-08-28T02:45:46.685Z,92.00
2017-08-28T02:48:12.717Z,92.00
2017-08-28T02:50:38.753Z,92.10
2017-08-28T02:53:04.797Z,92.00
2017-08-28T02:55:30.817Z,92.40
2017-08-28T02:57:56.856Z,92.60
2017-08-28T03:00:22.905Z,92.60
2017-08-28T03:02:49.670Z,92.50
2017-08-28T03:05:15.705Z,92.40
2017-08-28T03:07:41.747Z,92.20
2017-08-28T03:10:07.797Z,92.20
2017-08-28T03:12:33.809Z,92.40
2017-08-28T03:14:59.821Z,92.40
2017-08-28T03:17:25.842Z,92.10
2017-08-28T03:19:51.865Z,92.00
2017-08-28T03:22:17.874Z,92.00
2017-08-28T03:24:43.898Z,92.00
2017-08-28T03:27:09.932Z,92.30
2017-08-28T03:29:35.969Z,92.10
2017-08-28T03:32:02.305Z,92.10
2017-08-28T03:34:28.326Z,92.10
2017-08-28T03:36:54.413Z,92.30
2017-08-28T03:39:20.445Z,92.60
2017-08-28T03:41:46.473Z,92.40
2017-08-28T03:44:12.490Z,92.60
2017-08-28T03:46:38.565Z,92.70
2017-08-28T03:49:04.594Z,92.90
2017-08-28T03:51:30.641Z,92.80
2017-08-28T03:53:56.664Z,92.50
2017-08-28T03:56:22.717Z,92.70
2017-08-28T03:58:48.765Z,92.50
2017-08-28T04:01:14.813Z,92.40
2017-08-28T04:03:40.841Z,92.70
2017-08-28T04:06:06.889Z,92.60
2017-08-28T04:08:32.936Z,92.60
2017-08-28T04:10:58.978Z,92.50
2017-08-28T04:13:25.008Z,92.50
2017-08-28T04:15:51.033Z,92.20
2017-08-28T04:18:17.074Z,92.50
2017-08-28T04:20:43.092Z,92.60
2017-08-28T04:23:09.137Z,92.60
2017-08-28T04:25:35.176Z,92.60
2017-08-28T04:28:01.217Z,92.60
2017-08-28T04:30:27.253Z,92.40
2017-08-28T04:32:53.277Z,92.70
2017-08-28T04:35:19.308Z,93.00
2017-08-28T04:37:45.382Z,92.90
2017-08-28T04:40:11.409Z,92.90
2017-08-28T04:42:37.446Z,93.10
2017-08-28T04:45:03.476Z,93.10
2017-08-28T04:47:29.517Z,92.90
2017-08-28T04:49:55.567Z,93.10
2017-08-28T04:52:21.576Z,93.10
2017-08-28T04:54:47.626Z,93.10
2017-08-28T04:57:13.651Z,93.30
2017-08-28T04:59:39.673Z,93.10
2017-08-28T05:02:05.731Z,93.20
2017-08-28T05:04:31.789Z,93.20
2017-08-28T05:06:57.826Z,93.50
2017-08-28T05:09:23.873Z,93.10
2017-08-28T05:11:49.887Z,93.10
2017-08-28T05:14:15.905Z,92.90
2017-08-28T05:16:41.910Z,93.00
2017-08-28T05:19:07.937Z,93.30
2017-08-28T05:21:33.942Z,93.20
2017-08-28T05:23:59.999Z,93.00
2017-08-28T05:26:26.041Z,93.20
2017-08-28T05:28:52.061Z,92.90
2017-08-28T05:31:18.078Z,92.80
2017-08-28T05:33:44.101Z,92.70
2017-08-28T05:36:10.135Z,92.60
2017-08-28T05:38:36.154Z,92.40
2017-08-28T05:41:02.196Z,92.50
2017-08-28T05:43:28.225Z,92.50
2017-08-28T05:45:54.276Z,92.60
2017-08-28T05:48:20.305Z,92.90
2017-08-28T05:50:46.330Z,92.50
2017-08-28T05:53:12.357Z,92.30
2017-08-28T05:55:38.389Z,92.20
2017-08-28T05:58:04.434Z,92.30
2017-08-28T06:00:30.457Z,92.30
2017-08-28T06:02:56.510Z,91.90
2017-08-28T06:05:22.533Z,92.30
2017-08-28T06:07:48.561Z,91.90
2017-08-28T06:10:14.594Z,91.80
2017-08-28T06:12:40.633Z,91.40
2017-08-28T06:15:06.660Z,91.00
2017-08-28T06:17:32.742Z,91.10
2017-08-28T06:19:58.799Z,91.00
2017-08-28T06:22:24.836Z,91.30
2017-08-28T06:24:50.890Z,91.10
2017-08-28T06:27:16.913Z,91.20
2017-08-28T06:29:42.950Z,91.30
2017-08-28T06:32:08.977Z,91.50
2017-08-28T06:34:35.005Z,91.40
2017-08-28T06:37:01.024Z,91.50
2017-08-28T06:39:27.045Z,91.20
2017-08-28T06:41:53.085Z,90.90
2017-08-28T06:44:19.113Z,90.10
2017-08-28T06:46:45.145Z,89.40
2017-08-28T06:49:11.182Z,89.00
2017-08-28T06:51:37.209Z,88.90
2017-08-28T06:54:03.221Z,88.20
2017-08-28T06:56:29.253Z,87.80
2017-08-28T06:58:55.277Z,87.40
2017-08-28T07:01:21.314Z,87.90
2017-08-28T07:03:47.366Z,86.50
2017-08-28T07:06:13.390Z,84.50
2017-08-28T07:08:39.421Z,84.60
2017-08-28T07:11:05.461Z,84.60
2017-08-28T07:13:31.477Z,84.70
2017-08-28T07:15:57.513Z,84.20
2017-08-28T07:18:23.539Z,84.20
2017-08-28T07:20:49.590Z,84.50
2017-08-28T07:23:15.604Z,84.80
2017-08-28T07:25:41.634Z,83.60
2017-08-28T07:28:07.677Z,82.40
2017-08-28T07:30:33.690Z,82.60
2017-08-28T07:32:59.709Z,82.00
2017-08-28T07:35:25.733Z,81.60
2017-08-28T07:37:51.774Z,81.60
2017-08-28T07:40:17.796Z,80.60
2017-08-28T07:42:43.821Z,79.70
2017-08-28T07:45:09.842Z,79.60
2017-08-28T07:47:35.869Z,80.00
2017-08-28T07:50:01.894Z,79.80
2017-08-28T07:52:27.937Z,79.20
2017-08-28T07:54:53.941Z,79.60
2017-08-28T07:57:19.990Z,78.60
2017-08-28T07:59:46.017Z,77.80
2017-08-28T08:02:12.086Z,78.10
2017-08-28T08:04:38.104Z,77.30
2017-08-28T08:07:04.866Z,77.80
2017-08-28T08:09:30.905Z,77.80
2017-08-28T08:11:56.925Z,76.90
2017-08-28T08:14:22.954Z,77.70
2017-08-28T08:16:48.986Z,74.10
2017-08-28T08:19:15.045Z,73.90
2017-08-28T08:21:41.065Z,73.40
2017-08-28T08:24:07.089Z,73.90
2017-08-28T08:26:33.109Z,73.70
2017-08-28T08:28:59.155Z,74.20
2017-08-28T08:31:25.193Z,73.30
2017-08-28T08:33:57.426Z,73.50
2017-08-28T08:36:23.441Z,75.70
2017-08-28T08:38:49.469Z,74.20
2017-08-28T08:41:15.501Z,73.10
2017-08-28T08:43:41.540Z,69.80
2017-08-28T08:46:07.597Z,69.10
2017-08-28T08:48:33.613Z,67.90
2017-08-28T08:50:59.667Z,64.60
2017-08-28T08:53:25.709Z,65.30
2017-08-28T08:55:51.748Z,67.60
2017-08-28T08:58:17.777Z,65.30
2017-08-28T09:00:43.797Z,66.00
2017-08-28T09:03:09.829Z,66.20
2017-08-28T09:05:35.849Z,61.70
2017-08-28T09:08:01.885Z,62.10
2017-08-28T09:10:27.916Z,62.80
2017-08-28T09:12:53.945Z,63.50
2017-08-28T09:15:19.998Z,60.60
2017-08-28T09:17:46.002Z,62.50
2017-08-28T11:06:09.244Z,51.10
2017-08-28T11:08:35.289Z,50.90
2017-08-28T11:11:01.334Z,53.10
2017-08-28T11:13:27.373Z,52.20
2017-08-28T11:15:53.395Z,56.10
2017-08-28T11:18:19.405Z,53.40
2017-08-28T11:20:45.427Z,57.30
2017-08-28T11:23:11.460Z,56.90
2017-08-28T11:25:37.481Z,61.00
2017-08-28T11:28:03.514Z,61.80
2017-08-28T11:30:29.541Z,59.10
2017-08-28T11:32:55.577Z,54.70
2017-08-28T11:35:21.630Z,58.50
2017-08-28T11:37:47.684Z,59.20
2017-08-28T11:40:13.702Z,59.40
2017-08-28T11:42:39.725Z,60.20
2017-08-28T11:45:05.777Z,60.50
2017-08-28T11:47:31.805Z,57.70
2017-08-28T11:49:57.833Z,56.60
2017-08-28T11:52:23.851Z,61.20
2017-08-28T11:54:49.882Z,64.20
2017-08-28T11:57:15.917Z,63.10
2017-08-28T11:59:42.850Z,58.50
2017-08-28T12:02:08.883Z,58.70
2017-08-28T12:04:34.943Z,58.50
2017-08-28T12:07:00.982Z,56.10
2017-08-28T12:09:27.045Z,56.20
2017-08-28T12:11:53.147Z,56.90
2017-08-28T12:14:19.195Z,57.00
2017-08-28T12:16:45.259Z,60.10
2017-08-28T12:19:11.311Z,57.20
2017-08-28T12:21:37.409Z,55.90
2017-08-28T12:24:03.453Z,58.00
2017-08-28T12:26:29.764Z,55.40
2017-08-28T12:28:55.823Z,53.80
2017-08-28T12:31:21.873Z,57.20
2017-08-28T12:33:47.889Z,60.50
2017-08-28T12:36:13.913Z,57.50
2017-08-28T12:38:39.922Z,56.20
2017-08-28T12:41:05.957Z,56.90
2017-08-28T12:43:31.976Z,55.50
2017-08-28T12:45:57.989Z,54.90
2017-08-28T12:48:24.001Z,56.00
2017-08-28T12:50:56.938Z,61.20
2017-08-28T12:53:22.970Z,58.80
2017-08-28T12:55:49.013Z,57.30
2017-08-28T12:58:15.037Z,58.30
2017-08-28T13:00:41.056Z,58.20
2017-08-28T13:03:07.103Z,59.80
2017-08-28T13:05:33.138Z,57.50
2017-08-28T13:07:59.165Z,56.70
2017-08-28T13:10:25.209Z,58.80
2017-08-28T13:12:51.243Z,55.20
2017-08-28T13:15:17.291Z,55.00
2017-08-28T13:17:43.324Z,54.70
2017-08-28T13:20:09.353Z,53.60
2017-08-28T13:22:35.381Z,53.10
2017-08-28T13:25:01.409Z,53.40
2017-08-28T13:27:27.437Z,56.20
2017-08-28T13:29:53.460Z,52.50
2017-08-28T13:32:19.497Z,52.00
2017-08-28T13:34:45.522Z,53.40
2017-08-28T13:37:11.733Z,55.90
2017-08-28T13:39:37.774Z,58.00
2017-08-28T13:42:03.833Z,56.00
2017-08-28T13:44:29.898Z,52.80
2017-08-28T13:46:55.930Z,52.70
2017-08-28T13:49:21.973Z,51.70
2017-08-28T13:51:48.029Z,53.70
2017-08-28T13:54:14.073Z,58.60
2017-08-28T13:56:40.122Z,59.20
2017-08-28T13:59:06.231Z,56.80
2017-08-28T14:01:32.290Z,55.80
2017-08-28T14:03:58.323Z,57.00
2017-08-28T14:18:43.373Z,53.20
2017-08-28T14:26:31.214Z,39.20
2017-08-28T14:28:57.241Z,34.50
2017-08-28T14:31:23.263Z,33.40
2017-08-28T14:33:49.302Z,33.50
2017-08-28T14:36:15.334Z,33.10
2017-08-28T14:38:41.344Z,35.30
2017-08-28T14:41:07.371Z,34.30
2017-08-28T14:43:33.391Z,32.70
2017-08-28T14:46:00.851Z,34.50
2017-08-28T14:48:26.883Z,32.30
2017-08-28T14:50:52.896Z,31.20
2017-08-28T14:53:18.913Z,31.90
2017-08-28T14:55:44.945Z,32.20
2017-08-28T14:58:10.968Z,33.00
2017-08-28T15:00:37.010Z,31.70
2017-08-28T15:03:03.090Z,31.30
2017-08-28T15:05:29.160Z,29.70
2017-08-28T15:07:55.221Z,29.60
2017-08-28T15:10:21.281Z,30.50
2017-08-28T15:12:47.321Z,30.40
2017-08-28T15:15:13.341Z,31.80
2017-08-28T15:17:39.381Z,32.10
2017-08-28T15:20:05.440Z,31.00
2017-08-28T15:22:31.521Z,31.60
2017-08-28T15:24:57.557Z,32.10
2017-08-28T15:27:23.586Z,29.40
2017-08-28T15:29:49.629Z,29.40
2017-08-28T15:32:15.652Z,30.30
2017-08-28T15:34:41.652Z,30.20
2017-08-28T15:37:07.677Z,31.50
2017-08-28T15:39:33.701Z,29.20
2017-08-28T15:41:59.724Z,29.70
2017-08-28T15:44:25.761Z,30.10
2017-08-28T15:46:51.815Z,30.00
2017-08-28T15:49:17.841Z,28.40
2017-08-28T15:51:43.873Z,29.80
2017-08-28T15:54:09.917Z,30.20
2017-08-28T15:56:35.941Z,30.70
2017-08-28T15:59:01.981Z,31.20
2017-08-28T16:01:27.994Z,31.80
2017-08-28T16:03:54.033Z,32.50
2017-08-28T16:06:20.050Z,34.20
2017-08-28T16:08:46.117Z,35.50
2017-08-28T16:11:12.165Z,36.00
2017-08-28T16:13:38.229Z,36.10
2017-08-28T16:16:04.299Z,35.20
2017-08-28T16:18:30.362Z,36.10
2017-08-28T16:20:56.406Z,35.90
2017-08-28T16:23:22.555Z,37.30
2017-08-28T16:25:48.694Z,38.30
2017-08-28T16:28:15.629Z,39.50
2017-08-28T16:30:41.685Z,40.00
2017-08-28T16:33:07.735Z,41.30
2017-08-28T16:35:33.797Z,41.40
2017-08-28T16:37:59.817Z,42.50
2017-08-28T16:40:25.845Z,43.00
2017-08-28T16:42:51.905Z,43.90
2017-08-28T16:45:17.933Z,43.10
2017-08-28T16:47:43.961Z,43.70
2017-08-28T16:50:09.990Z,44.50
2017-08-28T16:52:36.013Z,44.80
2017-08-28T16:55:02.087Z,45.30
2017-08-28T16:57:28.158Z,45.90
2017-08-28T16:59:54.173Z,47.60
2017-08-28T17:02:20.197Z,47.70
2017-08-28T17:04:46.264Z,47.50
2017-08-28T17:07:12.345Z,48.00
2017-08-28T17:09:44.447Z,47.60
2017-08-28T17:12:10.487Z,47.40
2017-08-28T17:14:36.538Z,46.70
2017-08-28T17:17:02.577Z,47.20
2017-08-28T17:19:28.600Z,47.70
2017-08-28T17:21:54.617Z,49.20
2017-08-28T17:24:20.645Z,48.00
2017-08-28T17:26:46.657Z,48.40
2017-08-28T17:29:12.720Z,49.40
2017-08-28T17:31:38.769Z,49.20
2017-08-28T17:34:04.797Z,50.50
2017-08-28T17:36:30.813Z,49.80
2017-08-28T17:38:56.830Z,50.90
2017-08-28T17:41:22.865Z,52.50
2017-08-28T17:43:48.885Z,51.50
2017-08-28T17:46:14.912Z,52.30
2017-08-28T17:48:40.916Z,53.30
2017-08-28T17:51:06.958Z,52.10
2017-08-28T17:53:32.982Z,52.40
2017-08-28T17:55:59.395Z,52.80
2017-08-28T17:58:25.416Z,52.90
2017-08-28T18:00:51.480Z,53.50
2017-08-28T18:03:17.544Z,53.50
2017-08-28T18:05:43.602Z,53.60
2017-08-28T18:08:09.682Z,53.60
2017-08-28T18:10:35.747Z,55.20
2017-08-28T18:13:01.775Z,54.50
2017-08-28T18:15:27.838Z,54.60
2017-08-28T18:17:53.877Z,55.00
2017-08-28T18:20:19.898Z,55.00
2017-08-28T18:22:45.949Z,55.00
2017-08-28T18:25:12.000Z,54.90
2017-08-28T18:27:38.077Z,55.50
2017-08-28T18:30:04.096Z,56.50
2017-08-28T18:32:30.145Z,56.70
2017-08-28T18:34:56.172Z,56.30
2017-08-28T18:37:22.242Z,56.50
2017-08-28T18:39:48.273Z,56.90
2017-08-28T18:42:14.294Z,57.70
2017-08-28T18:44:40.339Z,59.30
2017-08-28T18:47:06.382Z,59.80
2017-08-28T18:49:32.432Z,58.60
2017-08-28T18:51:58.813Z,60.30
2017-08-28T18:54:24.838Z,59.70
2017-08-28T18:56:50.845Z,62.00
2017-08-28T18:59:16.865Z,60.00
2017-08-28T19:01:42.889Z,60.00
2017-08-28T19:04:08.917Z,60.60
2017-08-28T19:06:34.980Z,59.60
2017-08-28T19:09:01.025Z,60.00
2017-08-28T19:11:27.053Z,59.80
2017-08-28T19:13:53.089Z,61.00
2017-08-28T19:16:19.109Z,60.80
2017-08-28T19:18:45.157Z,62.40
2017-08-28T19:21:11.182Z,61.30
2017-08-28T19:23:37.211Z,63.00
2017-08-28T19:26:03.264Z,63.40
2017-08-28T19:28:29.323Z,62.90
2017-08-28T19:30:55.346Z,64.00
2017-08-28T19:33:21.367Z,64.00
2017-08-28T19:35:47.385Z,63.70
2017-08-28T19:38:13.401Z,64.40
2017-08-28T19:40:39.470Z,62.50
2017-08-28T19:43:05.478Z,63.40
2017-08-28T19:45:31.493Z,64.40
2017-08-28T19:47:57.526Z,66.10
2017-08-28T19:50:23.546Z,66.00
2017-08-28T19:52:49.573Z,65.90
2017-08-28T19:55:15.589Z,66.10
2017-08-28T19:57:41.609Z,67.10
2017-08-28T20:00:07.636Z,66.60
2017-08-28T20:02:39.817Z,66.30
2017-08-28T20:05:05.833Z,65.70
2017-08-28T20:07:31.865Z,67.70
2017-08-28T20:09:57.913Z,67.50
2017-08-28T20:12:23.926Z,67.70
2017-08-28T20:14:49.981Z,67.70
2017-08-28T20:17:16.008Z,68.30
2017-08-28T20:19:42.044Z,66.50
2017-08-28T20:22:08.085Z,68.00
2017-08-28T20:24:34.121Z,66.70
2017-08-28T20:27:00.149Z,66.80
2017-08-28T20:29:26.173Z,67.00
2017-08-28T20:31:52.184Z,67.60
2017-08-28T20:34:18.202Z,67.80
2017-08-28T20:36:44.221Z,67.70
2017-08-28T20:39:10.249Z,67.10
2017-08-28T20:41:36.286Z,67.40
2017-08-28T20:44:02.333Z,67.20
2017-08-28T20:46:28.390Z,67.40
2017-08-28T20:48:54.425Z,67.50
2017-08-28T20:51:20.478Z,67.80
2017-08-28T20:53:46.511Z,67.70
2017-08-28T20:56:12.564Z,68.00
2017-08-28T20:58:38.593Z,67.90
2017-08-28T21:01:04.627Z,68.10
2017-08-28T21:03:30.665Z,68.40
2017-08-28T21:05:56.721Z,68.50
2017-08-28T21:08:22.753Z,68.40
2017-08-28T21:10:48.777Z,68.70
2017-08-28T21:13:14.796Z,68.60
2017-08-28T21:15:40.820Z,68.60
2017-08-28T21:18:06.880Z,69.50
2017-08-28T21:20:32.912Z,68.80
2017-08-28T21:22:58.940Z,68.70
2017-08-28T21:25:24.960Z,68.80
2017-08-28T21:27:50.989Z,68.90
2017-08-28T21:30:17.005Z,69.10
2017-08-28T21:32:43.029Z,69.40
2017-08-28T21:35:09.066Z,69.20
2017-08-28T21:37:35.077Z,69.30
2017-08-28T21:40:01.103Z,69.40
2017-08-28T21:42:27.125Z,69.60
2017-08-28T21:44:53.145Z,69.90
2017-08-28T21:47:19.169Z,69.90
2017-08-28T21:49:45.200Z,70.00
2017-08-28T21:52:11.218Z,70.40
2017-08-28T21:54:37.248Z,70.10
2017-08-28T21:57:03.273Z,69.80
2017-08-28T21:59:29.333Z,70.10
2017-08-28T22:01:55.354Z,70.10
2017-08-28T22:04:21.374Z,70.10
2017-08-28T22:06:47.411Z,70.20
2017-08-28T22:09:13.461Z,70.40
2017-08-28T22:11:39.501Z,70.40
2017-08-28T22:14:05.529Z,70.60
2017-08-28T22:16:31.574Z,70.70
2017-08-28T22:18:57.613Z,70.70
2017-08-28T22:21:23.646Z,71.20
2017-08-28T22:23:49.669Z,71.30
2017-08-28T22:26:15.694Z,71.20
2017-08-28T22:28:41.712Z,71.30
2017-08-28T22:31:07.754Z,71.20
2017-08-28T22:33:33.778Z,71.60
2017-08-28T22:35:59.826Z,71.50
2017-08-28T22:38:25.852Z,71.60
2017-08-28T22:40:51.882Z,72.40
2017-08-28T22:43:17.922Z,71.70
2017-08-28T22:45:43.962Z,71.90
2017-08-28T22:48:10.013Z,71.80
2017-08-28T22:50:36.121Z,72.10
2017-08-28T22:53:02.166Z,72.20
2017-08-28T22:55:28.185Z,72.20
2017-08-28T22:57:54.228Z,72.40
2017-08-28T23:00:20.269Z,72.70
2017-08-28T23:02:46.314Z,72.40
2017-08-28T23:05:12.361Z,72.50
2017-08-28T23:07:38.396Z,72.50
2017-08-28T23:10:04.428Z,72.70
2017-08-28T23:12:30.875Z,72.60
2017-08-28T23:14:56.917Z,73.40
2017-08-28T23:17:23.073Z,73.50
2017-08-28T23:19:49.097Z,73.60
2017-08-28T23:22:15.134Z,73.70
2017-08-28T23:24:41.157Z,74.00
2017-08-28T23:27:07.164Z,74.20
2017-08-28T23:29:33.209Z,74.20
2017-08-28T23:31:59.234Z,74.90
2017-08-28T23:34:25.257Z,74.80
2017-08-28T23:36:51.280Z,75.50
2017-08-28T23:39:17.305Z,75.60
2017-08-28T23:41:43.330Z,76.60
2017-08-28T23:44:09.404Z,77.40
2017-08-28T23:46:35.425Z,76.70
2017-08-28T23:49:01.478Z,77.60
2017-08-28T23:51:27.510Z,77.50
2017-08-28T23:53:53.522Z,77.80
2017-08-28T23:56:19.545Z,78.90
2017-08-28T23:58:45.565Z,78.80
